Nublado com chuva ligeira
Nublado
Nublado
Nublado com neve ligeira
Nublado com neve ligeira
Nublado com neve ligeira
Nublado com neve ligeira
(°C)
-1°
-1°
-1°
-1°
-1°
-1°
(°C)
-4°
-5°
-5°
-6°
-6°
-6°
-6°
N
NNO
NNO
ENE
L
L
ESE
(km/h)
14-24
14-25
15-25
15-27
14-24
13-23
12-22
(mm)
0.8
0
0
0.1
0.3
0.4
0.5
(%)
41
83
97
98
99
99
98

Elevação do sol

/ 23.4°
sun-icon
UV 4
05:59
17:27
Minguante gibosa (245°)
23:05
08:36

METAR para Mexed (OIMM)

Hora Condições Temperatura/
Ponto de condensação
Vento Visibilidade Tempo Nuvens Pressão Mudança Bruto
MVFR 1°C / -5°C 330º 16kt 9700m - Broken Clouds 2000ft
Broken Clouds 8000ft
1022 - OIMM 011130Z 33016KT 9999 BKN020 BKN080 01/M05 Q1022 A3019
MVFR 1°C / -4°C 310º 6kt 9700m - Broken Clouds 2000ft
Broken Clouds 8000ft
1022 - OIMM 011100Z 31006KT 9999 BKN020 BKN080 01/M04 Q1022 A3019
MVFR 1°C / -4°C 310º 12kt 9700m - Broken Clouds 2000ft
Broken Clouds 8000ft
1022 - OIMM 011030Z 31012KT 9999 BKN020 BKN080 01/M04 Q1022 A3020
MVFR 1°C / -3°C 300º 6kt 9700m - Broken Clouds 2000ft
Broken Clouds 8000ft
1022 - OIMM 011000Z 30006KT 9999 BKN020 BKN080 01/M03 Q1022 A3020
MVFR 2°C / -4°C 260º 8kt 9700m - Broken Clouds 2000ft
Broken Clouds 8000ft
1022 - OIMM 010930Z 26008KT 9999 BKN020 BKN080 02/M04 Q1022 A3020
MVFR 1°C / -5°C 260º 12kt 9700m - Broken Clouds 2000ft
Broken Clouds 8000ft
1023 - OIMM 010900Z 26012KT 9999 BKN020 BKN080 01/M05 Q1023 A3021
MVFR 1°C / -5°C 300º 4kt 9700m - Broken Clouds 2000ft
Broken Clouds 8000ft
1023 - OIMM 010830Z 30004KT 9999 BKN020 BKN080 01/M05 Q1023 A3021
MVFR 1°C / -4°C 300º 4kt 8000m - Broken Clouds 1500ft
Broken Clouds 8000ft
1023 - OIMM 010800Z 30004KT 8000 BKN015 BKN080 01/M04 Q1023 A3022
MVFR 1°C / -4°C 250º 8kt 8000m - Broken Clouds 1500ft
Broken Clouds 8000ft
1023 - OIMM 010730Z 25008KT 8000 BKN015 BKN080 01/M04 Q1023 A3023
MVFR 0°C / -5°C 270º 4kt 9700m - Broken Clouds 1000ft
Broken Clouds 7000ft
1025 - OIMM 010700Z 27004KT 9999 BKN010 BKN070 M00/M05 Q1025 A3024
MVFR -1°C / -4°C 280º 12kt 9700m - Broken Clouds 1000ft
Broken Clouds 7000ft
1024 - OIMM 010630Z 28012KT 9999 BKN010 BKN070 M01/M04 Q1024 A3024
IFR -2°C / -4°C 270º 6kt 8000m Light Snow 1.00mm precipitation Broken Clouds 700ft
Broken Clouds 7000ft
1024 - OIMM 010600Z 27006KT 8000 -SN BKN007 BKN070 M02/M04 Q1024 A3025
IFR -2°C / -4°C 310º 8kt 9700m - Broken Clouds 700ft
Broken Clouds 7000ft
1024 - OIMM 010530Z 31008KT 9999 BKN007 BKN070 M02/M04 Q1024 A3025
IFR -3°C / -4°C 310º 14kt 5000m Light Snow Mist 1.00mm precipitation Broken Clouds 500ft
Overcast 6000ft
1024 - OIMM 010500Z 31014KT 5000 -SN BR BKN005 OVC060 M03/M04 Q1024 A3025
IFR -3°C / -4°C 320º 16kt 3000m Light Snow Mist 1.00mm precipitation Scattered Clouds 500ft
Overcast 6000ft
1024 - OIMM 010430Z 32016KT 3000 -SN BR SCT005 OVC060 M03/M04 Q1024 A3025
IFR -3°C / -4°C 320º 14kt 2200m Light Snow Mist 1.00mm precipitation Scattered Clouds 500ft
Overcast 6000ft
1024 - OIMM 010400Z 32014KT 2200 -SN BR SCT005 OVC060 M03/M04 Q1024 A3024
IFR -3°C / -4°C 300º 16kt 2000m Light Snow Mist 1.00mm precipitation Scattered Clouds 400ft
Overcast 6000ft
1024 - OIMM 010330Z 30016KT 2000 -SN BR SCT004 OVC060 M03/M04 Q1024 A3024
IFR -3°C / -4°C 280º 4kt 2000m Light Snow Mist 1.00mm precipitation Scattered Clouds 400ft
Overcast 6000ft
1023 - OIMM 010300Z 28004KT 2000 -SN BR SCT004 OVC060 M03/M04 Q1023 A3023
LIFR -3°C / -4°C 300º 4kt 2000m Light Snow Mist 1.00mm precipitation Broken Clouds 400ft
Overcast 6000ft
1023 - OIMM 010230Z 30004KT 2000 -SN BR BKN004 OVC060 M03/M04 Q1023 A3023
IFR -4°C / -4°C 190º 6kt 4000m Light Snow Mist 1.00mm precipitation Scattered Clouds 400ft
Overcast 7000ft
1023 - OIMM 010200Z 19006KT 4000 -SN BR SCT004 OVC070 M04/M04 Q1023 A3021
MVFR -4°C / -4°C 180º 4kt 8000m Light Snow 1.00mm precipitation Scattered Clouds 700ft
Overcast 7000ft
1023 - OIMM 010130Z 18004KT 8000 -SN SCT007 OVC070 M04/M04 Q1023 A3021
VFR -4°C / -4°C 190º 6kt 9700m - Few Clouds 1000ft
Broken Clouds 8000ft
1022 - OIMM 010100Z 19006KT 9999 FEW010 BKN080 M04/M04 Q1022 A3020
VFR -4°C / -4°C 180º 4kt 9700m - Few Clouds 1000ft
Broken Clouds 8000ft
1022 - OIMM 010030Z 18004KT 9999 FEW010 BKN080 M04/M04 Q1022 A3020
VFR -3°C / -3°C 180º 4kt 9700m - Few Clouds 1000ft
Broken Clouds 8000ft
1022 - OIMM 010000Z 18004KT 9999 FEW010 BKN080 M03/M03 Q1022 A3020

MVFR

1°C / -5°C

[Mais]
Vento 330º 16kt
Visibilidade 9700m
Tempo -
Nuvens Broken Clouds 2000ft
Broken Clouds 8000ft
Pressão 1022
Mudança -
Bruto OIMM 011130Z 33016KT 9999 BKN020 BKN080 01/M05 Q1022 A3019

MVFR

1°C / -4°C

[Mais]
Vento 310º 6kt
Visibilidade 9700m
Tempo -
Nuvens Broken Clouds 2000ft
Broken Clouds 8000ft
Pressão 1022
Mudança -
Bruto OIMM 011100Z 31006KT 9999 BKN020 BKN080 01/M04 Q1022 A3019

MVFR

1°C / -4°C

[Mais]
Vento 310º 12kt
Visibilidade 9700m
Tempo -
Nuvens Broken Clouds 2000ft
Broken Clouds 8000ft
Pressão 1022
Mudança -
Bruto OIMM 011030Z 31012KT 9999 BKN020 BKN080 01/M04 Q1022 A3020

MVFR

1°C / -3°C

[Mais]
Vento 300º 6kt
Visibilidade 9700m
Tempo -
Nuvens Broken Clouds 2000ft
Broken Clouds 8000ft
Pressão 1022
Mudança -
Bruto OIMM 011000Z 30006KT 9999 BKN020 BKN080 01/M03 Q1022 A3020

MVFR

2°C / -4°C

[Mais]
Vento 260º 8kt
Visibilidade 9700m
Tempo -
Nuvens Broken Clouds 2000ft
Broken Clouds 8000ft
Pressão 1022
Mudança -
Bruto OIMM 010930Z 26008KT 9999 BKN020 BKN080 02/M04 Q1022 A3020

MVFR

1°C / -5°C

[Mais]
Vento 260º 12kt
Visibilidade 9700m
Tempo -
Nuvens Broken Clouds 2000ft
Broken Clouds 8000ft
Pressão 1023
Mudança -
Bruto OIMM 010900Z 26012KT 9999 BKN020 BKN080 01/M05 Q1023 A3021

MVFR

1°C / -5°C

[Mais]
Vento 300º 4kt
Visibilidade 9700m
Tempo -
Nuvens Broken Clouds 2000ft
Broken Clouds 8000ft
Pressão 1023
Mudança -
Bruto OIMM 010830Z 30004KT 9999 BKN020 BKN080 01/M05 Q1023 A3021

MVFR

1°C / -4°C

[Mais]
Vento 300º 4kt
Visibilidade 8000m
Tempo -
Nuvens Broken Clouds 1500ft
Broken Clouds 8000ft
Pressão 1023
Mudança -
Bruto OIMM 010800Z 30004KT 8000 BKN015 BKN080 01/M04 Q1023 A3022

MVFR

1°C / -4°C

[Mais]
Vento 250º 8kt
Visibilidade 8000m
Tempo -
Nuvens Broken Clouds 1500ft
Broken Clouds 8000ft
Pressão 1023
Mudança -
Bruto OIMM 010730Z 25008KT 8000 BKN015 BKN080 01/M04 Q1023 A3023

MVFR

0°C / -5°C

[Mais]
Vento 270º 4kt
Visibilidade 9700m
Tempo -
Nuvens Broken Clouds 1000ft
Broken Clouds 7000ft
Pressão 1025
Mudança -
Bruto OIMM 010700Z 27004KT 9999 BKN010 BKN070 M00/M05 Q1025 A3024

MVFR

-1°C / -4°C

[Mais]
Vento 280º 12kt
Visibilidade 9700m
Tempo -
Nuvens Broken Clouds 1000ft
Broken Clouds 7000ft
Pressão 1024
Mudança -
Bruto OIMM 010630Z 28012KT 9999 BKN010 BKN070 M01/M04 Q1024 A3024

IFR

-2°C / -4°C

[Mais]
Vento 270º 6kt
Visibilidade 8000m
Tempo Light Snow 1.00mm precipitation
Nuvens Broken Clouds 700ft
Broken Clouds 7000ft
Pressão 1024
Mudança -
Bruto OIMM 010600Z 27006KT 8000 -SN BKN007 BKN070 M02/M04 Q1024 A3025

IFR

-2°C / -4°C

[Mais]
Vento 310º 8kt
Visibilidade 9700m
Tempo -
Nuvens Broken Clouds 700ft
Broken Clouds 7000ft
Pressão 1024
Mudança -
Bruto OIMM 010530Z 31008KT 9999 BKN007 BKN070 M02/M04 Q1024 A3025

IFR

-3°C / -4°C

[Mais]
Vento 310º 14kt
Visibilidade 5000m
Tempo Light Snow Mist 1.00mm precipitation
Nuvens Broken Clouds 500ft
Overcast 6000ft
Pressão 1024
Mudança -
Bruto OIMM 010500Z 31014KT 5000 -SN BR BKN005 OVC060 M03/M04 Q1024 A3025

IFR

-3°C / -4°C

[Mais]
Vento 320º 16kt
Visibilidade 3000m
Tempo Light Snow Mist 1.00mm precipitation
Nuvens Scattered Clouds 500ft
Overcast 6000ft
Pressão 1024
Mudança -
Bruto OIMM 010430Z 32016KT 3000 -SN BR SCT005 OVC060 M03/M04 Q1024 A3025

IFR

-3°C / -4°C

[Mais]
Vento 320º 14kt
Visibilidade 2200m
Tempo Light Snow Mist 1.00mm precipitation
Nuvens Scattered Clouds 500ft
Overcast 6000ft
Pressão 1024
Mudança -
Bruto OIMM 010400Z 32014KT 2200 -SN BR SCT005 OVC060 M03/M04 Q1024 A3024

IFR

-3°C / -4°C

[Mais]
Vento 300º 16kt
Visibilidade 2000m
Tempo Light Snow Mist 1.00mm precipitation
Nuvens Scattered Clouds 400ft
Overcast 6000ft
Pressão 1024
Mudança -
Bruto OIMM 010330Z 30016KT 2000 -SN BR SCT004 OVC060 M03/M04 Q1024 A3024

IFR

-3°C / -4°C

[Mais]
Vento 280º 4kt
Visibilidade 2000m
Tempo Light Snow Mist 1.00mm precipitation
Nuvens Scattered Clouds 400ft
Overcast 6000ft
Pressão 1023
Mudança -
Bruto OIMM 010300Z 28004KT 2000 -SN BR SCT004 OVC060 M03/M04 Q1023 A3023

LIFR

-3°C / -4°C

[Mais]
Vento 300º 4kt
Visibilidade 2000m
Tempo Light Snow Mist 1.00mm precipitation
Nuvens Broken Clouds 400ft
Overcast 6000ft
Pressão 1023
Mudança -
Bruto OIMM 010230Z 30004KT 2000 -SN BR BKN004 OVC060 M03/M04 Q1023 A3023

IFR

-4°C / -4°C

[Mais]
Vento 190º 6kt
Visibilidade 4000m
Tempo Light Snow Mist 1.00mm precipitation
Nuvens Scattered Clouds 400ft
Overcast 7000ft
Pressão 1023
Mudança -
Bruto OIMM 010200Z 19006KT 4000 -SN BR SCT004 OVC070 M04/M04 Q1023 A3021

MVFR

-4°C / -4°C

[Mais]
Vento 180º 4kt
Visibilidade 8000m
Tempo Light Snow 1.00mm precipitation
Nuvens Scattered Clouds 700ft
Overcast 7000ft
Pressão 1023
Mudança -
Bruto OIMM 010130Z 18004KT 8000 -SN SCT007 OVC070 M04/M04 Q1023 A3021

VFR

-4°C / -4°C

[Mais]
Vento 190º 6kt
Visibilidade 9700m
Tempo -
Nuvens Few Clouds 1000ft
Broken Clouds 8000ft
Pressão 1022
Mudança -
Bruto OIMM 010100Z 19006KT 9999 FEW010 BKN080 M04/M04 Q1022 A3020

VFR

-4°C / -4°C

[Mais]
Vento 180º 4kt
Visibilidade 9700m
Tempo -
Nuvens Few Clouds 1000ft
Broken Clouds 8000ft
Pressão 1022
Mudança -
Bruto OIMM 010030Z 18004KT 9999 FEW010 BKN080 M04/M04 Q1022 A3020

VFR

-3°C / -3°C

[Mais]
Vento 180º 4kt
Visibilidade 9700m
Tempo -
Nuvens Few Clouds 1000ft
Broken Clouds 8000ft
Pressão 1022
Mudança -
Bruto OIMM 010000Z 18004KT 9999 FEW010 BKN080 M03/M03 Q1022 A3020

TAF para Mexed (OIMM)

From till


From till Wind 310º 12kt. Visibility 5000m. Mist Light Snow . Broken Clouds 500ft. Few Clouds 3500ft. Overcast 7000ft.
Becoming from till
Becoming from till
Becoming from till
Temporarly from till Visibility 997.791m. Snow Mist .
Becoming from till
Temporarly from till Visibility 498.895m. freezing Fog Snow Fog .
Becoming from till

Bruto: TAF OIMM 010515Z 0106/0212 31012KT 5000 BR -SN BKN005 FEW035CB OVC070 BECMG 0107/0109 6000 BECMG 0110/0112 09006KT 4000 BR -SN BECMG 0114/0115 2500 SN BR TEMPO 0115/0117 1000 SN BR BECMG 0117/0118 1000 SN BR TEMPO 0118/0203 0500 FG/FZFG SN BECMG 0204/0206 6000 FEW035 SCT080 TAF OIKB 010515Z 0106/0212 03012KT 5000 HZ NSC TEMPO 0106/0115 09022KT 2500 SA TEMPO 0115/0121 10016KT BECMG 0206/0208 12008KT

Radar e precipitação nowcast para Mexed

Chuvisco
Leve
Moderado
Forte
Muito forte
Granizo

O marcador do lugar é colocado em Mexed. Esta animação mostra o radar de precipitação para o intervalo de tempo selecionado, bem como uma previsão de 2h. As cruzes de cor laranja indicam relâmpagos. Dados fornecidos por nowcast.de (disponível nos EUA, Europa e Austrália). A queda de neve suave ou ligeira pode ser invisível para o radar. A intensidade da precipitação é codificada por cores, variando de turquesa a vermelha.

Imagens atuais de satélite e precipitação para Mexed, República Islâmica do Irã

O marcador de lugar é colocado em Mexed. [Mais]

A imagem de satélite em tempo real combina luz visível durante o dia com radiação infravermelha durante a noite. À noite, a imagem não é escura, pois a radiação infravermelha pode detectar diferenças de temperatura. Infelizmente, nuvens baixas e neblina são difíceis de distinguir das temperaturas do solo e, portanto, podem ser quase invisíveis durante a noite. As imagens de satélite Meteosat para a Europa são atualizadas em tempo real a cada 5 minutos. GOES-16/GOES-17 ( América do Norte e do Sul) e Himawari (Ásia) são atualizadas a cada 10 minutos.

A precipitação é estimada a partir de radares e satélites. As estimativas de precipitação a partir de satélites são menos precisas à noite do que durante o dia.

© 2024 meteoblue, NOAA Satellites GOES-16 and EUMETSAT. Dados de relâmpagos fornecidos por nowcast.

Voltar ao início
×
Olá,
parece que você está usando um bloqueador de anúncios.

A publicidade é essencial para manter o nosso site gratuito com detalhes e precisão únicos.

Por favor approve www.meteoblue.com no seu bloqueador de anúncios ou considere a compra de um dos nossos produtos:

Já tem uma assinatura?
Então por favor login.